Terminal Aerodrome Forecast
Issued by NWS Twin Cities, MN

Home | Current Version | Previous Version | Graphics & Text | Print | Product List | Glossary On
Versions: 1 2 3 4 5 6 7 8 9 10 11 12 13 14 15 16 17 18 19 20 21 22 23 24 25 26 27 28
531
FTUS43 KMPX 261125
TAFMSP
TAF
KMSP 261125Z 2612/2718 22007KT P6SM SCT025 OVC040
     FM261400 23007KT P6SM VCSH BKN025 OVC040
     FM261800 27012G18KT P6SM SCT025 BKN045
     FM262200 29009KT P6SM SCT050 SCT250
     FM270500 14005KT P6SM BKN150=

USA.gov is the U.S. government's official web portal to all federal, state and local government web resources and services.